MPH266B EDDP-LBSF
Flight info
| Callsign | MPH266B |
|---|---|
| Flight time | N/A |
| Altitude | 35000 |
| Route | DRN2N DRN Z21 OMELO DCT EVIKU DCT NAVTI DCT BEGLA DCT SVR DCT BABIT DCT XENIT DCT RAVAK DCT NISVA NISVA5D |
| Aircraft | MD11/H-V/N |
Departure
| Time | 2026-05-03 23:58 |
|---|---|
| Airport | Leipzig/Halle Airport (EDDP) |
Arrival
| Time | N/A |
|---|---|
| Airport | Sofia Airport (LBSF) |
| Time | Latitude | Longitude | Altitude | Speed | Heading |
|---|---|---|---|---|---|
| 2026-05-03 23:07 | 51.40834 | 12.24344 | 472 ft | 0 kts | 85° |
| 2026-05-03 23:36 | 51.40834 | 12.24338 | 472 ft | 2 kts | 85° |
| 2026-05-03 23:36 | 51.40832 | 12.24309 | 471 ft | 3 kts | 85° |
| 2026-05-03 23:37 | 51.40831 | 12.24284 | 471 ft | 3 kts | 76° |
| 2026-05-03 23:37 | 51.40826 | 12.24259 | 471 ft | 3 kts | 45° |
| 2026-05-03 23:37 | 51.40815 | 12.24245 | 471 ft | 3 kts | 7° |
| 2026-05-03 23:37 | 51.40797 | 12.24244 | 471 ft | 3 kts | 354° |
| 2026-05-03 23:38 | 51.40784 | 12.24246 | 471 ft | 0 kts | 355° |
| 2026-05-03 23:44 | 51.40789 | 12.24246 | 471 ft | 2 kts | 355° |
| 2026-05-03 23:45 | 51.40810 | 12.24243 | 473 ft | 4 kts | 355° |
| 2026-05-03 23:45 | 51.40850 | 12.24236 | 471 ft | 7 kts | 353° |
| 2026-05-03 23:45 | 51.40910 | 12.24224 | 472 ft | 10 kts | 354° |
| 2026-05-03 23:45 | 51.40961 | 12.24221 | 473 ft | 0 kts | 357° |
| 2026-05-03 23:46 | 51.40962 | 12.24221 | 467 ft | 0 kts | 357° |
| 2026-05-03 23:46 | 51.40971 | 12.24220 | 467 ft | 2 kts | 357° |
| 2026-05-03 23:46 | 51.40995 | 12.24218 | 471 ft | 4 kts | 357° |
| 2026-05-03 23:47 | 51.41017 | 12.24216 | 469 ft | 4 kts | 356° |
| 2026-05-03 23:47 | 51.41048 | 12.24197 | 468 ft | 5 kts | 324° |
| 2026-05-03 23:47 | 51.41065 | 12.24142 | 473 ft | 7 kts | 283° |
| 2026-05-03 23:47 | 51.41067 | 12.24055 | 471 ft | 9 kts | 268° |
| 2026-05-03 23:48 | 51.41063 | 12.23940 | 469 ft | 11 kts | 265° |
| 2026-05-03 23:48 | 51.41057 | 12.23812 | 476 ft | 11 kts | 265° |
| 2026-05-03 23:48 | 51.41052 | 12.23688 | 478 ft | 11 kts | 266° |
| 2026-05-03 23:48 | 51.41045 | 12.23549 | 471 ft | 14 kts | 265° |
| 2026-05-03 23:49 | 51.41037 | 12.23371 | 473 ft | 19 kts | 266° |
| 2026-05-03 23:49 | 51.41026 | 12.23145 | 474 ft | 21 kts | 266° |
| 2026-05-03 23:49 | 51.41012 | 12.22896 | 471 ft | 24 kts | 263° |
| 2026-05-03 23:49 | 51.40997 | 12.22646 | 469 ft | 23 kts | 264° |
| 2026-05-03 23:50 | 51.40990 | 12.22426 | 465 ft | 16 kts | 269° |
| 2026-05-03 23:50 | 51.41002 | 12.22354 | 462 ft | 6 kts | 309° |
| 2026-05-03 23:50 | 51.41048 | 12.22297 | 462 ft | 7 kts | 316° |
| 2026-05-03 23:50 | 51.41070 | 12.22229 | 463 ft | 6 kts | 278° |
| 2026-05-03 23:51 | 51.41069 | 12.22168 | 462 ft | 6 kts | 267° |
| 2026-05-03 23:51 | 51.41066 | 12.22099 | 464 ft | 7 kts | 265° |
| 2026-05-03 23:51 | 51.41060 | 12.21985 | 464 ft | 16 kts | 265° |
| 2026-05-03 23:51 | 51.41049 | 12.21750 | 466 ft | 23 kts | 265° |
| 2026-05-03 23:52 | 51.41036 | 12.21483 | 460 ft | 25 kts | 266° |
| 2026-05-03 23:52 | 51.41023 | 12.21198 | 457 ft | 26 kts | 265° |
| 2026-05-03 23:52 | 51.41010 | 12.20903 | 447 ft | 26 kts | 266° |
| 2026-05-03 23:52 | 51.40999 | 12.20668 | 432 ft | 19 kts | 266° |
| 2026-05-03 23:53 | 51.41000 | 12.20529 | 430 ft | 10 kts | 288° |
| 2026-05-03 23:53 | 51.41045 | 12.20492 | 443 ft | 6 kts | 0° |
| 2026-05-03 23:53 | 51.41081 | 12.20499 | 441 ft | 4 kts | 11° |
| 2026-05-03 23:53 | 51.41101 | 12.20507 | 445 ft | 2 kts | 14° |
| 2026-05-03 23:54 | 51.41110 | 12.20511 | 445 ft | 1 kts | 15° |
| 2026-05-03 23:54 | 51.41114 | 12.20513 | 446 ft | 1 kts | 15° |
| 2026-05-03 23:54 | 51.41123 | 12.20517 | 446 ft | 2 kts | 15° |
| 2026-05-03 23:54 | 51.41139 | 12.20529 | 446 ft | 3 kts | 29° |
| 2026-05-03 23:55 | 51.41159 | 12.20562 | 447 ft | 5 kts | 55° |
| 2026-05-03 23:55 | 51.41168 | 12.20628 | 446 ft | 7 kts | 83° |
| 2026-05-03 23:55 | 51.41169 | 12.20660 | 445 ft | 2 kts | 85° |
| 2026-05-03 23:55 | 51.41170 | 12.20666 | 445 ft | 0 kts | 85° |
| 2026-05-03 23:58 | 51.41175 | 12.20772 | 437 ft | 52 kts | 86° |
| 2026-05-03 23:58 | 51.41237 | 12.22102 | 468 ft | 180 kts | 85° |
| 2026-05-03 23:58 | 51.41349 | 12.24192 | 1647 ft | 186 kts | 85° |
| 2026-05-03 23:59 | 51.41498 | 12.26253 | 3275 ft | 190 kts | 84° |
| 2026-05-03 23:59 | 51.41639 | 12.28471 | 4530 ft | 214 kts | 87° |
| 2026-05-03 23:59 | 51.41766 | 12.31054 | 5198 ft | 248 kts | 87° |
| 2026-05-03 23:59 | 51.41890 | 12.33954 | 5804 ft | 270 kts | 89° |
| 2026-05-04 00:00 | 51.41992 | 12.36984 | 6593 ft | 278 kts | 88° |
| 2026-05-04 00:00 | 51.42122 | 12.40213 | 7046 ft | 300 kts | 88° |
| 2026-05-04 00:00 | 51.42271 | 12.43597 | 8101 ft | 302 kts | 88° |
| 2026-05-04 00:00 | 51.42392 | 12.46555 | 10782 ft | 250 kts | 89° |
| 2026-05-04 00:01 | 51.42518 | 12.49565 | 11405 ft | 294 kts | 89° |
| 2026-05-04 00:01 | 51.42664 | 12.52930 | 12298 ft | 312 kts | 88° |
| 2026-05-04 00:01 | 51.42674 | 12.56623 | 12550 ft | 348 kts | 102° |
| 2026-05-04 00:01 | 51.41932 | 12.60320 | 13761 ft | 343 kts | 121° |
| 2026-05-04 00:02 | 51.40705 | 12.63468 | 15123 ft | 347 kts | 127° |
| 2026-05-04 00:02 | 51.39304 | 12.66697 | 16069 ft | 354 kts | 129° |
| 2026-05-04 00:02 | 51.37907 | 12.69874 | 17734 ft | 343 kts | 128° |
| 2026-05-04 00:02 | 51.36615 | 12.73004 | 19162 ft | 344 kts | 127° |
| 2026-05-04 00:03 | 51.35341 | 12.76079 | 20582 ft | 337 kts | 127° |
| 2026-05-04 00:03 | 51.33957 | 12.79377 | 20642 ft | 377 kts | 127° |
| 2026-05-04 00:03 | 51.32434 | 12.83028 | 20621 ft | 412 kts | 126° |
| 2026-05-04 00:03 | 51.30846 | 12.86923 | 21392 ft | 420 kts | 126° |
| 2026-05-04 00:04 | 51.29259 | 12.90873 | 22305 ft | 426 kts | 125° |
| 2026-05-04 00:04 | 51.27650 | 12.94903 | 23197 ft | 432 kts | 125° |
| 2026-05-04 00:04 | 51.26024 | 12.98985 | 24032 ft | 439 kts | 125° |
| 2026-05-04 00:04 | 51.24376 | 13.03118 | 24842 ft | 445 kts | 125° |
| 2026-05-04 00:05 | 51.23268 | 13.05891 | 25369 ft | 449 kts | 125° |
| 2026-05-04 00:05 | 51.21574 | 13.10119 | 26127 ft | 455 kts | 125° |
| 2026-05-04 00:05 | 51.19858 | 13.14397 | 26883 ft | 460 kts | 124° |
| 2026-05-04 00:05 | 51.18123 | 13.18716 | 27593 ft | 466 kts | 124° |
| 2026-05-04 00:06 | 51.16360 | 13.23106 | 28288 ft | 472 kts | 124° |
| 2026-05-04 00:06 | 51.14588 | 13.27539 | 28941 ft | 478 kts | 124° |
| 2026-05-04 00:06 | 51.12793 | 13.32038 | 29585 ft | 483 kts | 124° |
| 2026-05-04 00:06 | 51.10983 | 13.36572 | 30243 ft | 487 kts | 124° |
| 2026-05-04 00:07 | 51.09159 | 13.41134 | 30826 ft | 493 kts | 124° |
| 2026-05-04 00:07 | 51.07324 | 13.45722 | 31201 ft | 489 kts | 124° |
| 2026-05-04 00:07 | 51.05504 | 13.50267 | 31568 ft | 486 kts | 124° |
| 2026-05-04 00:07 | 51.03688 | 13.54803 | 31886 ft | 487 kts | 124° |
| 2026-05-04 00:08 | 51.00101 | 13.63755 | 32237 ft | 461 kts | 124° |
| 2026-05-04 00:08 | 50.98407 | 13.68014 | 33127 ft | 459 kts | 124° |
| 2026-05-04 00:08 | 50.96709 | 13.72287 | 33501 ft | 453 kts | 124° |
| 2026-05-04 00:09 | 50.95066 | 13.76423 | 33847 ft | 448 kts | 124° |
| 2026-05-04 00:09 | 50.93347 | 13.80611 | 33968 ft | 446 kts | 126° |
| 2026-05-04 00:09 | 50.91551 | 13.84539 | 34237 ft | 447 kts | 129° |
| 2026-05-04 00:09 | 50.89647 | 13.88482 | 34613 ft | 454 kts | 129° |
| 2026-05-04 00:10 | 50.87795 | 13.92560 | 34910 ft | 460 kts | 123° |
| 2026-05-04 00:10 | 50.86032 | 13.96829 | 34979 ft | 464 kts | 128° |
| 2026-05-04 00:10 | 50.81608 | 14.04048 | 35006 ft | 454 kts | 140° |
| 2026-05-04 00:11 | 50.76791 | 14.10541 | 35008 ft | 455 kts | 141° |
| 2026-05-04 00:11 | 50.72039 | 14.17152 | 35007 ft | 455 kts | 139° |
| 2026-05-04 00:12 | 50.67345 | 14.23890 | 34992 ft | 456 kts | 139° |
| 2026-05-04 00:12 | 50.62672 | 14.30639 | 34985 ft | 456 kts | 139° |
| 2026-05-04 00:13 | 50.57992 | 14.37392 | 34997 ft | 455 kts | 139° |
| 2026-05-04 00:13 | 50.53388 | 14.44008 | 35023 ft | 446 kts | 140° |
| 2026-05-04 00:14 | 50.48817 | 14.50530 | 35020 ft | 442 kts | 141° |
| 2026-05-04 00:14 | 50.43884 | 14.56237 | 35020 ft | 440 kts | 148° |
| 2026-05-04 00:15 | 50.38727 | 14.61431 | 35019 ft | 440 kts | 149° |
| 2026-05-04 00:15 | 50.33575 | 14.66612 | 35020 ft | 440 kts | 149° |
| 2026-05-04 00:16 | 50.28434 | 14.71835 | 35019 ft | 441 kts | 149° |
| 2026-05-04 00:16 | 50.23300 | 14.77060 | 35024 ft | 441 kts | 148° |
| 2026-05-04 00:17 | 50.18177 | 14.82280 | 35020 ft | 441 kts | 148° |
| 2026-05-04 00:17 | 50.13067 | 14.87470 | 35017 ft | 441 kts | 148° |
| 2026-05-04 00:18 | 50.07914 | 14.92685 | 35025 ft | 441 kts | 148° |
| 2026-05-04 00:18 | 50.02757 | 14.97888 | 35018 ft | 441 kts | 148° |
| 2026-05-04 00:19 | 49.97589 | 15.03089 | 35026 ft | 442 kts | 148° |
| 2026-05-04 00:19 | 49.92401 | 15.08293 | 35028 ft | 444 kts | 148° |
| 2026-05-04 00:20 | 49.87204 | 15.13491 | 35028 ft | 445 kts | 148° |
| 2026-05-04 00:20 | 49.81999 | 15.18691 | 35029 ft | 445 kts | 148° |
| 2026-05-04 00:21 | 49.76784 | 15.23875 | 35030 ft | 446 kts | 148° |
| 2026-05-04 00:21 | 49.71556 | 15.29029 | 35030 ft | 446 kts | 148° |
| 2026-05-04 00:22 | 49.66322 | 15.34193 | 35029 ft | 446 kts | 148° |
| 2026-05-04 00:22 | 49.61122 | 15.39324 | 35037 ft | 446 kts | 148° |
| 2026-05-04 00:23 | 49.55888 | 15.44489 | 35037 ft | 446 kts | 148° |
| 2026-05-04 00:23 | 49.50644 | 15.49647 | 35041 ft | 447 kts | 148° |
| 2026-05-04 00:24 | 49.45398 | 15.54787 | 35049 ft | 447 kts | 148° |
| 2026-05-04 00:24 | 49.40141 | 15.59923 | 35049 ft | 447 kts | 148° |
| 2026-05-04 00:25 | 49.34886 | 15.65049 | 35057 ft | 448 kts | 148° |
| 2026-05-04 00:25 | 49.30505 | 15.69311 | 35063 ft | 448 kts | 148° |